Middelkerke, Belgium
Current Conditions -  °F | °C
As of 10:50 PM on Saturday 20 Dec 2014 (Local Time) from EBOS Reporting Station
Scattered Clouds Scattered Clouds  
Wind Chill: 39°   Ceiling: Unl
Heat Index: 46°   Visibility: 6mi
Dew Point: 41°   Wind: 18mph
Humidity: 81%   Direction: 290°WNW
Pressure: 30.39"   Gusts: NA
Location:  51.19°N, 2.82°E
Report Text: EBOS 202150Z 29016KT 9999 SCT025 08/05 Q1029 NOSIG
Loading
Personal Weather Stations






























Interactive Weather Map New forecast layout! Learn more

10-Day Weather Forecast

Advertisements
Track Severe Weather on mobile